createdAt,value
2023-01-17T00:00:16.585Z,96284.28
2023-01-17T00:03:04.708Z,96305.47
2023-01-17T00:06:09.791Z,96298.63
2023-01-17T00:09:14.843Z,96317.28
2023-01-17T00:12:05.514Z,96330.66
2023-01-17T00:14:54.431Z,96328.72
2023-01-17T00:17:40.554Z,96327.78
2023-01-17T00:20:47.868Z,96337.13
2023-01-17T00:23:52.907Z,96338.88
2023-01-17T00:26:59.452Z,96323.72
2023-01-17T00:29:45.612Z,96328.97
2023-01-17T00:32:32.255Z,96330.56
2023-01-17T00:35:24.619Z,96334.19
2023-01-17T00:38:13.920Z,96334.34
2023-01-17T00:41:05.603Z,96330.06
2023-01-17T00:44:10.718Z,96340.84
2023-01-17T00:47:15.949Z,96347.63
2023-01-17T00:50:20.957Z,96346.66
2023-01-17T00:53:26.362Z,96341.53
2023-01-17T00:56:31.434Z,96359.28
2023-01-17T00:59:36.577Z,96361.09
2023-01-17T01:02:41.954Z,96359.34
2023-01-17T01:05:47.096Z,96364.56
2023-01-17T01:08:51.895Z,96369.72
2023-01-17T01:11:57.082Z,96354.75
2023-01-17T01:15:02.194Z,96359.91
2023-01-17T01:18:07.258Z,96367.75
2023-01-17T01:21:12.242Z,96366.03
2023-01-17T01:24:17.348Z,96362.91
2023-01-17T01:27:22.492Z,96387.41
2023-01-17T01:30:27.841Z,96378.91
2023-01-17T01:33:18.833Z,96386.47
2023-01-17T01:36:07.912Z,96383.81
2023-01-17T01:38:54.652Z,96375.34
2023-01-17T01:41:40.963Z,96383.69
2023-01-17T01:44:47.948Z,96385.28
2023-01-17T01:47:38.593Z,96372.59
2023-01-17T01:50:25.394Z,96390.28
2023-01-17T01:53:12.510Z,96398.72
2023-01-17T01:55:59.291Z,96394.41
2023-01-17T01:58:50.512Z,96382.59
2023-01-17T02:01:37.143Z,96388.50
2023-01-17T02:04:25.452Z,96391.78
2023-01-17T02:07:21.930Z,96390.06
2023-01-17T02:10:09.738Z,96385.69
2023-01-17T02:12:56.210Z,96375.63
2023-01-17T02:15:57.047Z,96390.00
2023-01-17T02:19:17.537Z,96389.97
2023-01-17T02:22:41.353Z,96391.59
2023-01-17T02:25:43.657Z,96398.44
2023-01-17T02:28:51.796Z,96395.00
2023-01-17T02:31:49.652Z,96399.28
2023-01-17T02:35:00.438Z,96383.28
2023-01-17T02:38:15.604Z,96389.09
2023-01-17T02:41:09.202Z,96373.88
2023-01-17T02:43:55.724Z,96375.78
2023-01-17T02:46:55.955Z,96391.72
2023-01-17T02:49:42.336Z,96386.66
2023-01-17T02:52:49.700Z,96380.94
2023-01-17T02:56:43.415Z,96389.59
2023-01-17T03:00:01.053Z,96397.97
2023-01-17T03:03:22.447Z,96397.19
2023-01-17T03:06:16.536Z,96392.22
2023-01-17T03:09:04.013Z,96374.59
2023-01-17T03:11:50.864Z,96369.97
2023-01-17T03:14:37.274Z,96372.41
2023-01-17T03:17:26.191Z,96346.13
2023-01-17T03:20:12.970Z,96361.56
2023-01-17T03:22:59.411Z,96339.75
2023-01-17T03:25:45.692Z,96374.97
2023-01-17T03:28:32.281Z,96363.03
2023-01-17T03:31:19.934Z,96354.66
2023-01-17T03:34:06.406Z,96397.78
2023-01-17T03:36:52.744Z,96397.06
2023-01-17T03:39:39.300Z,96408.91
2023-01-17T03:42:25.618Z,96380.19
2023-01-17T03:45:12.005Z,96413.94
2023-01-17T03:47:59.375Z,96395.38
2023-01-17T03:50:45.705Z,96390.41
2023-01-17T03:53:32.038Z,96416.69
2023-01-17T03:56:19.892Z,96414.22
2023-01-17T03:59:06.073Z,96377.16
2023-01-17T04:01:52.725Z,96380.63
2023-01-17T04:04:39.183Z,96390.97
2023-01-17T04:07:25.708Z,96375.88
2023-01-17T04:10:12.019Z,96368.41
2023-01-17T04:12:58.237Z,96392.97
2023-01-17T04:15:50.089Z,96378.66
2023-01-17T04:18:36.510Z,96392.13
2023-01-17T04:21:22.995Z,96377.75
2023-01-17T04:24:09.192Z,96397.06
2023-01-17T04:26:55.759Z,96398.63
2023-01-17T04:29:42.017Z,96396.22
2023-01-17T04:32:29.833Z,96363.09
2023-01-17T04:35:16.575Z,96396.94
2023-01-17T04:38:03.467Z,96380.69
2023-01-17T04:40:50.896Z,96414.53
2023-01-17T04:43:37.108Z,96389.91
2023-01-17T04:46:23.932Z,96367.13
2023-01-17T04:49:10.636Z,96380.53
2023-01-17T04:51:56.897Z,96395.13
2023-01-17T04:54:43.305Z,96416.47
2023-01-17T04:57:30.018Z,96373.50
2023-01-17T05:00:16.824Z,96384.59
2023-01-17T05:03:03.192Z,96373.78
2023-01-17T05:05:49.514Z,96408.72
2023-01-17T05:08:35.618Z,96377.69
2023-01-17T05:11:21.799Z,96373.63
2023-01-17T05:14:10.117Z,96361.84
2023-01-17T05:16:57.777Z,96393.19
2023-01-17T05:19:44.454Z,96389.91
2023-01-17T05:22:30.708Z,96418.75
2023-01-17T05:25:17.137Z,96403.53
2023-01-17T05:28:03.869Z,96391.72
2023-01-17T05:30:50.550Z,96396.81
2023-01-17T05:33:37.076Z,96363.81
2023-01-17T05:36:23.243Z,96351.94
2023-01-17T05:39:09.540Z,96415.41
2023-01-17T05:41:55.540Z,96379.03
2023-01-17T05:44:42.398Z,96410.34
2023-01-17T05:47:28.837Z,96409.47
2023-01-17T05:50:21.399Z,96403.53
2023-01-17T05:53:13.253Z,96392.53
2023-01-17T05:55:59.546Z,96387.44
2023-01-17T05:58:46.166Z,96383.19
2023-01-17T06:01:32.469Z,96354.38
2023-01-17T06:04:18.908Z,96389.09
2023-01-17T06:07:05.195Z,96384.84
2023-01-17T06:09:51.388Z,96345.94
2023-01-17T06:12:37.670Z,96343.38
2023-01-17T06:15:24.065Z,96347.59
2023-01-17T06:18:13.610Z,96346.75
2023-01-17T06:21:00.094Z,96374.69
2023-01-17T06:23:46.318Z,96304.44
2023-01-17T06:26:32.739Z,96304.41
2023-01-17T06:29:18.810Z,96314.56
2023-01-17T06:32:05.421Z,96312.00
2023-01-17T06:34:51.608Z,96353.44
2023-01-17T06:37:38.048Z,96351.72
2023-01-17T06:40:25.623Z,96331.47
2023-01-17T06:43:11.952Z,96358.50
2023-01-17T06:45:58.093Z,96367.88
2023-01-17T06:48:44.858Z,96367.84
2023-01-17T06:51:31.243Z,96317.22
2023-01-17T06:54:18.819Z,96337.44
2023-01-17T06:57:05.205Z,96345.94
2023-01-17T06:59:51.752Z,96329.91
2023-01-17T07:02:38.155Z,96331.56
2023-01-17T07:05:24.522Z,96320.59
2023-01-17T07:08:10.594Z,96317.16
2023-01-17T07:11:06.296Z,96351.88
2023-01-17T07:13:52.576Z,96318.91
2023-01-17T07:16:38.684Z,96330.81
2023-01-17T07:19:25.514Z,96319.81
2023-01-17T07:22:12.042Z,96296.13
2023-01-17T07:24:58.684Z,96336.72
2023-01-17T07:27:45.083Z,96357.00
2023-01-17T07:30:31.619Z,96352.78
2023-01-17T07:33:17.978Z,96343.50
2023-01-17T07:36:09.196Z,96346.00
2023-01-17T07:38:55.893Z,96296.13
2023-01-17T07:41:42.931Z,96301.19
2023-01-17T07:44:31.599Z,96331.66
2023-01-17T07:47:18.186Z,96303.75
2023-01-17T07:50:05.507Z,96334.19
2023-01-17T07:52:52.209Z,96316.41
2023-01-17T07:55:38.505Z,96329.13
2023-01-17T07:58:25.063Z,96340.94
2023-01-17T08:01:13.711Z,96330.72
2023-01-17T08:04:00.167Z,96306.25
2023-01-17T08:06:48.676Z,96308.78
2023-01-17T08:09:35.143Z,96304.59
2023-01-17T08:12:21.383Z,96316.41
2023-01-17T08:15:08.567Z,96336.72
2023-01-17T08:17:57.467Z,96331.63
2023-01-17T08:20:45.034Z,96335.03
2023-01-17T08:23:31.552Z,96313.88
2023-01-17T08:26:23.438Z,96340.03
2023-01-17T08:29:09.716Z,96302.78
2023-01-17T08:31:55.866Z,96293.44
2023-01-17T08:34:42.403Z,96273.88
2023-01-17T08:37:28.838Z,96288.13
2023-01-17T08:40:17.131Z,96292.38
2023-01-17T08:43:03.865Z,96299.88
2023-01-17T08:45:50.341Z,96315.13
2023-01-17T08:48:36.949Z,96256.75
2023-01-17T08:51:26.352Z,96316.69
2023-01-17T08:54:15.093Z,96287.88
2023-01-17T08:57:03.282Z,96302.19
2023-01-17T08:59:50.476Z,96324.13
2023-01-17T09:02:36.906Z,96297.03
2023-01-17T09:05:23.519Z,96276.44
2023-01-17T09:08:09.776Z,96318.47
2023-01-17T09:10:56.349Z,96287.88
2023-01-17T09:13:43.279Z,96317.34
2023-01-17T09:16:30.379Z,96299.50
2023-01-17T09:19:17.060Z,96311.69
2023-01-17T09:22:05.390Z,96267.53
2023-01-17T09:24:51.719Z,96308.44
2023-01-17T09:27:38.404Z,96257.84
2023-01-17T09:30:25.096Z,96281.34
2023-01-17T09:33:11.359Z,96301.78
2023-01-17T09:36:01.329Z,96251.75
2023-01-17T09:38:48.149Z,96293.88
2023-01-17T09:41:56.999Z,96285.50
2023-01-17T09:44:54.111Z,96292.94
2023-01-17T09:47:44.220Z,96294.59
2023-01-17T09:50:39.337Z,96296.47
2023-01-17T09:53:28.000Z,96248.22
2023-01-17T09:56:22.620Z,96290.28
2023-01-17T09:59:19.053Z,96292.06
2023-01-17T10:02:08.756Z,96292.88
2023-01-17T10:05:26.501Z,96290.94
2023-01-17T10:08:40.546Z,96289.25
2023-01-17T10:11:43.115Z,96272.59
2023-01-17T10:14:56.443Z,96275.59
2023-01-17T10:17:49.004Z,96271.44
2023-01-17T10:21:12.437Z,96218.88
2023-01-17T10:24:33.128Z,96268.50
2023-01-17T10:27:24.961Z,96234.56
2023-01-17T10:30:31.729Z,96269.44
2023-01-17T10:33:28.626Z,96268.50
2023-01-17T10:36:20.583Z,96238.47
2023-01-17T10:39:29.311Z,96256.69
2023-01-17T10:42:50.735Z,96246.09
2023-01-17T10:45:41.325Z,96245.88
2023-01-17T10:48:41.588Z,96221.50
2023-01-17T10:51:51.488Z,96227.19
2023-01-17T10:55:04.870Z,96233.25
2023-01-17T10:57:52.807Z,96201.66
2023-01-17T11:00:51.900Z,96235.53
2023-01-17T11:03:39.585Z,96232.94
2023-01-17T11:06:27.570Z,96222.28
2023-01-17T11:09:14.874Z,96209.72
2023-01-17T11:12:01.217Z,96173.50
2023-01-17T11:15:04.160Z,96200.72
2023-01-17T11:18:02.532Z,96214.28
2023-01-17T11:20:49.848Z,96210.84
2023-01-17T11:23:36.524Z,96184.41
2023-01-17T11:26:27.328Z,96190.41
2023-01-17T11:29:26.627Z,96201.38
2023-01-17T11:32:32.091Z,96205.94
2023-01-17T11:35:31.671Z,96194.78
2023-01-17T11:38:20.502Z,96185.09
2023-01-17T11:41:22.123Z,96176.28
2023-01-17T11:44:32.207Z,96172.81
2023-01-17T11:47:18.983Z,96121.97
2023-01-17T11:50:23.347Z,96167.94
2023-01-17T11:53:32.107Z,96165.72
2023-01-17T11:56:35.789Z,96155.06
2023-01-17T11:59:22.154Z,96158.94
2023-01-17T12:02:59.780Z,96141.28
2023-01-17T12:05:58.711Z,96128.63
2023-01-17T12:08:54.382Z,96124.94
2023-01-17T12:12:08.865Z,96121.47
2023-01-17T12:15:19.757Z,96116.00
2023-01-17T12:18:35.154Z,96086.38
2023-01-17T12:21:37.531Z,96071.53
2023-01-17T12:24:26.751Z,96096.50
2023-01-17T12:27:36.973Z,96054.31
2023-01-17T12:31:01.176Z,96053.50
2023-01-17T12:33:53.587Z,96074.63
2023-01-17T12:36:54.756Z,96076.19
2023-01-17T12:39:46.485Z,96046.06
2023-01-17T12:42:43.130Z,96053.09
2023-01-17T12:45:36.345Z,96049.31
2023-01-17T12:48:29.218Z,96031.59
2023-01-17T12:51:29.566Z,96025.34
2023-01-17T12:54:21.550Z,96045.06
2023-01-17T12:57:25.189Z,96039.72
2023-01-17T13:00:21.328Z,96016.63
2023-01-17T13:03:31.497Z,96014.66
2023-01-17T13:06:58.487Z,96032.88
2023-01-17T13:09:51.728Z,96012.78
2023-01-17T13:12:39.161Z,95995.75
2023-01-17T13:15:32.955Z,95990.56
2023-01-17T13:18:25.933Z,96019.50
2023-01-17T13:21:15.238Z,96023.50
2023-01-17T13:24:31.073Z,96002.13
2023-01-17T13:27:29.779Z,96001.75
2023-01-17T13:30:22.323Z,96025.63
2023-01-17T13:33:20.693Z,96014.63
2023-01-17T13:36:19.044Z,96016.56
2023-01-17T13:39:43.203Z,96002.44
2023-01-17T13:42:56.015Z,95983.28
2023-01-17T13:45:53.969Z,95952.25
2023-01-17T13:48:40.944Z,96018.63
2023-01-17T13:52:02.210Z,96012.63
2023-01-17T13:54:51.926Z,96017.59
2023-01-17T13:57:43.489Z,95996.41
2023-01-17T14:00:49.307Z,96016.28
2023-01-17T14:03:46.112Z,96020.53
2023-01-17T14:06:36.089Z,96020.59
2023-01-17T14:09:30.886Z,96022.13
2023-01-17T14:12:21.136Z,96019.69
2023-01-17T14:15:21.031Z,96015.84
2023-01-17T14:18:37.528Z,96029.03
2023-01-17T14:21:33.643Z,95980.31
2023-01-17T14:24:20.575Z,96003.16
2023-01-17T14:27:23.328Z,96027.03
2023-01-17T14:30:36.485Z,96014.88
2023-01-17T14:33:28.653Z,96003.91
2023-01-17T14:36:24.970Z,96029.16
2023-01-17T14:39:22.499Z,96008.41
2023-01-17T14:42:13.641Z,96015.13
2023-01-17T14:45:08.818Z,96020.16
2023-01-17T14:47:58.608Z,96011.94
2023-01-17T14:50:46.735Z,95978.41
2023-01-17T14:53:33.899Z,95985.47
2023-01-17T14:56:20.180Z,96007.34
2023-01-17T14:59:14.791Z,96011.19
2023-01-17T15:02:08.166Z,95984.03
2023-01-17T15:04:55.221Z,95990.13
2023-01-17T15:07:45.716Z,95987.81
2023-01-17T15:10:33.577Z,95995.75
2023-01-17T15:13:42.800Z,96011.25
2023-01-17T15:16:38.037Z,95991.41
2023-01-17T15:19:24.410Z,95986.03
2023-01-17T15:22:12.270Z,96001.56
2023-01-17T15:24:59.626Z,95995.03
2023-01-17T15:27:45.892Z,95993.63
2023-01-17T15:30:32.530Z,96008.94
2023-01-17T15:33:20.988Z,96006.31
2023-01-17T15:36:13.174Z,96015.00
2023-01-17T15:39:21.967Z,95997.69
2023-01-17T15:42:27.989Z,96012.63
2023-01-17T15:45:22.247Z,95992.81
2023-01-17T15:48:39.165Z,96017.34
2023-01-17T15:51:36.300Z,96019.47
2023-01-17T15:54:29.080Z,96009.31
2023-01-17T15:57:24.997Z,95947.00
2023-01-17T16:00:19.066Z,96005.97
2023-01-17T16:03:30.780Z,95991.84
2023-01-17T16:06:45.359Z,96007.63
2023-01-17T16:09:41.843Z,95999.41
2023-01-17T16:12:28.496Z,95980.19
2023-01-17T16:15:18.189Z,95984.66
2023-01-17T16:18:15.198Z,96022.25
2023-01-17T16:21:25.009Z,95986.06
2023-01-17T16:24:11.463Z,96020.81
2023-01-17T16:26:58.160Z,96021.66
2023-01-17T16:29:44.758Z,96018.38
2023-01-17T16:32:32.119Z,95966.09
2023-01-17T16:35:24.041Z,96022.00
2023-01-17T16:38:12.332Z,96022.69
2023-01-17T16:40:58.523Z,96010.25
2023-01-17T16:43:44.939Z,95995.34
2023-01-17T16:46:31.362Z,96023.84
2023-01-17T16:49:18.571Z,96013.72
2023-01-17T16:52:04.811Z,95999.47
2023-01-17T16:54:51.143Z,96024.19
2023-01-17T16:57:37.995Z,96030.06
2023-01-17T17:00:24.896Z,96014.25
2023-01-17T17:03:19.016Z,95978.97
2023-01-17T17:06:05.359Z,96021.66
2023-01-17T17:08:51.675Z,96030.72
2023-01-17T17:11:38.292Z,96015.81
2023-01-17T17:14:24.689Z,96031.13
2023-01-17T17:17:11.200Z,96015.38
2023-01-17T17:19:57.658Z,95991.88
2023-01-17T17:22:50.072Z,96038.06
2023-01-17T17:25:37.147Z,96012.09
2023-01-17T17:28:23.759Z,96024.81
2023-01-17T17:31:12.847Z,96036.72
2023-01-17T17:34:00.889Z,96040.16
2023-01-17T17:36:47.026Z,96047.81
2023-01-17T17:39:33.828Z,96008.25
2023-01-17T17:42:20.636Z,96019.34
2023-01-17T17:45:07.375Z,96007.50
2023-01-17T17:47:54.295Z,96054.69
2023-01-17T17:50:41.476Z,96062.16
2023-01-17T17:53:28.128Z,96055.59
2023-01-17T17:56:14.487Z,96041.19
2023-01-17T18:03:30.189Z,96052.88
2023-01-17T18:06:18.274Z,96014.34
2023-01-17T18:09:09.108Z,96080.03
2023-01-17T18:11:55.793Z,96058.69
2023-01-17T18:14:42.010Z,96095.47
2023-01-17T18:17:28.642Z,96103.06
2023-01-17T18:20:15.456Z,96072.78
2023-01-17T18:23:01.967Z,96115.97
2023-01-17T18:25:49.182Z,96117.00
2023-01-17T18:28:35.502Z,96108.06
2023-01-17T18:31:25.012Z,96076.16
2023-01-17T18:34:17.544Z,96116.84
2023-01-17T18:37:04.231Z,96112.91
2023-01-17T18:39:50.462Z,96111.31
2023-01-17T18:42:36.884Z,96132.56
2023-01-17T18:45:23.095Z,96137.88
2023-01-17T18:48:09.377Z,96129.38
2023-01-17T18:50:57.379Z,96142.94
2023-01-17T18:53:44.812Z,96148.16
2023-01-17T18:56:34.115Z,96148.28
2023-01-17T18:59:21.382Z,96120.63
2023-01-17T19:02:09.113Z,96130.84
2023-01-17T19:04:55.963Z,96120.84
2023-01-17T19:07:42.635Z,96128.38
2023-01-17T19:10:28.871Z,96157.91
2023-01-17T19:13:15.399Z,96165.69
2023-01-17T19:16:03.687Z,96105.03
2023-01-17T19:18:51.174Z,96158.13
2023-01-17T19:21:37.586Z,96143.00
2023-01-17T19:24:23.915Z,96129.63
2023-01-17T19:27:10.945Z,96148.28
2023-01-17T19:29:57.535Z,96166.94
2023-01-17T19:32:44.232Z,96165.28
2023-01-17T19:35:30.361Z,96166.16
2023-01-17T19:38:16.683Z,96147.66
2023-01-17T19:41:10.049Z,96178.97
2023-01-17T19:43:58.950Z,96179.78
2023-01-17T19:46:46.102Z,96151.03
2023-01-17T19:49:33.982Z,96150.22
2023-01-17T19:52:22.165Z,96162.00
2023-01-17T19:55:09.875Z,96129.16
2023-01-17T19:57:56.665Z,96137.72
2023-01-17T20:00:46.791Z,96160.44
2023-01-17T20:03:33.292Z,96166.34
2023-01-17T20:06:21.893Z,96125.06
2023-01-17T20:09:07.962Z,96163.81
2023-01-17T20:11:55.378Z,96162.91
2023-01-17T20:14:42.043Z,96161.19
2023-01-17T20:17:28.611Z,96156.97
2023-01-17T20:20:15.837Z,96153.59
2023-01-17T20:23:05.429Z,96130.75
2023-01-17T20:25:58.815Z,96148.44
2023-01-17T20:28:47.163Z,96162.03
2023-01-17T20:31:37.915Z,96126.66
2023-01-17T20:34:25.772Z,96147.81
2023-01-17T20:37:11.957Z,96168.13
2023-01-17T20:39:58.160Z,96151.28
2023-01-17T20:42:44.830Z,96161.44
2023-01-17T20:45:31.787Z,96147.19
2023-01-17T20:48:19.785Z,96137.66
2023-01-17T20:51:10.782Z,96135.94
2023-01-17T20:54:04.123Z,96130.97
2023-01-17T20:56:51.310Z,96126.69
2023-01-17T20:59:37.685Z,96131.78
2023-01-17T21:02:23.959Z,96133.47
2023-01-17T21:05:12.711Z,96132.56
2023-01-17T21:07:59.339Z,96154.25
2023-01-17T21:10:49.665Z,96160.38
2023-01-17T21:13:36.561Z,96153.63
2023-01-17T21:16:24.455Z,96159.63
2023-01-17T21:19:14.151Z,96161.38
2023-01-17T21:22:00.383Z,96159.69
2023-01-17T21:24:46.598Z,96152.91
2023-01-17T21:27:33.158Z,96144.53
2023-01-17T21:30:19.695Z,96113.28
2023-01-17T21:33:06.004Z,96162.38
2023-01-17T21:35:52.858Z,96113.47
2023-01-17T21:38:39.029Z,96168.31
2023-01-17T21:41:28.596Z,96169.94
2023-01-17T21:44:20.621Z,96131.19
2023-01-17T21:47:07.029Z,96149.75
2023-01-17T21:49:53.453Z,96089.72
2023-01-17T21:52:39.776Z,96168.22
2023-01-17T21:55:44.621Z,96109.97
2023-01-17T21:58:45.978Z,96159.72
2023-01-17T22:01:33.251Z,96155.53
2023-01-17T22:04:20.058Z,96119.34
2023-01-17T22:07:06.092Z,96170.78
2023-01-17T22:09:54.875Z,96171.63
2023-01-17T22:12:41.636Z,96175.81
2023-01-17T22:15:28.125Z,96133.75
2023-01-17T22:18:15.198Z,96148.13
2023-01-17T22:21:05.683Z,96154.00
2023-01-17T22:23:54.716Z,96177.63
2023-01-17T22:26:42.013Z,96160.00
2023-01-17T22:29:28.213Z,96159.06
2023-01-17T22:32:14.457Z,96137.97
2023-01-17T22:35:00.950Z,96114.19
2023-01-17T22:37:47.501Z,96158.09
2023-01-17T22:40:38.064Z,96171.56
2023-01-17T22:43:30.188Z,96173.28
2023-01-17T22:46:19.704Z,96143.91
2023-01-17T22:49:08.643Z,96164.13
2023-01-17T22:51:54.975Z,96132.09
2023-01-17T22:54:41.356Z,96173.47
2023-01-17T22:57:27.594Z,96142.25
2023-01-17T23:00:14.871Z,96170.16
2023-01-17T23:03:01.400Z,96172.84
2023-01-17T23:05:48.161Z,96131.50
2023-01-17T23:08:34.594Z,96145.91
2023-01-17T23:11:42.320Z,96166.94
2023-01-17T23:14:52.992Z,96156.81
2023-01-17T23:17:58.024Z,96139.03
2023-01-17T23:20:44.150Z,96136.50
2023-01-17T23:23:31.767Z,96154.28
2023-01-17T23:26:18.305Z,96161.78
2023-01-17T23:29:04.516Z,96129.75
2023-01-17T23:31:50.771Z,96145.00
2023-01-17T23:34:37.355Z,96140.72
2023-01-17T23:37:47.653Z,96168.59
2023-01-17T23:40:36.175Z,96162.69
2023-01-17T23:43:25.344Z,96137.38
2023-01-17T23:46:12.593Z,96168.50
2023-01-17T23:48:59.147Z,96154.16
2023-01-17T23:51:45.399Z,96139.69
2023-01-17T23:54:32.042Z,96164.25
2023-01-17T23:57:19.745Z,96147.41
